sensor_id;sensor_type;location;lat;lon;timestamp;pressure;altitude;pressure_sealevel;temperature;humidity
19783;BME280;10051;40.294;-3.754;2022-11-20T00:00:50;94624.94;;;9.79;60.08
19783;BME280;10051;40.294;-3.754;2022-11-20T00:03:15;94646.19;;;9.72;60.48
19783;BME280;10051;40.294;-3.754;2022-11-20T00:05:42;94629.38;;;9.68;60.35
19783;BME280;10051;40.294;-3.754;2022-11-20T00:08:08;94590.00;;;9.47;60.44
19783;BME280;10051;40.294;-3.754;2022-11-20T00:10:36;94616.25;;;9.63;60.41
19783;BME280;10051;40.294;-3.754;2022-11-20T00:13:02;94644.13;;;9.90;60.27
19783;BME280;10051;40.294;-3.754;2022-11-20T00:15:28;94598.16;;;9.66;60.75
19783;BME280;10051;40.294;-3.754;2022-11-20T00:17:53;94640.97;;;9.93;60.78
19783;BME280;10051;40.294;-3.754;2022-11-20T00:20:19;94581.56;;;9.56;60.95
19783;BME280;10051;40.294;-3.754;2022-11-20T00:22:44;94639.66;;;9.90;60.61
19783;BME280;10051;40.294;-3.754;2022-11-20T00:25:10;94622.84;;;9.86;61.28
19783;BME280;10051;40.294;-3.754;2022-11-20T00:27:36;94593.41;;;9.74;61.40
19783;BME280;10051;40.294;-3.754;2022-11-20T00:30:03;94637.03;;;10.01;61.23
19783;BME280;10051;40.294;-3.754;2022-11-20T00:32:29;94532.75;;;9.44;61.23
19783;BME280;10051;40.294;-3.754;2022-11-20T00:34:55;94503.88;;;9.39;60.79
19783;BME280;10051;40.294;-3.754;2022-11-20T00:37:20;94617.84;;;10.16;61.49
19783;BME280;10051;40.294;-3.754;2022-11-20T00:39:46;94627.81;;;10.24;61.10
19783;BME280;10051;40.294;-3.754;2022-11-20T00:42:11;94617.31;;;10.03;61.70
19783;BME280;10051;40.294;-3.754;2022-11-20T00:44:37;94623.63;;;10.02;62.12
19783;BME280;10051;40.294;-3.754;2022-11-20T00:47:03;94623.91;;;10.01;62.02
19783;BME280;10051;40.294;-3.754;2022-11-20T00:49:28;94599.72;;;9.67;63.16
19783;BME280;10051;40.294;-3.754;2022-11-20T00:51:54;94524.06;;;9.28;63.23
19783;BME280;10051;40.294;-3.754;2022-11-20T00:54:19;94574.25;;;9.68;63.02
19783;BME280;10051;40.294;-3.754;2022-11-20T00:56:45;94573.19;;;9.64;62.67
19783;BME280;10051;40.294;-3.754;2022-11-20T00:59:10;94604.19;;;9.67;63.76
19783;BME280;10051;40.294;-3.754;2022-11-20T01:01:37;94630.72;;;9.96;63.82
19783;BME280;10051;40.294;-3.754;2022-11-20T01:04:03;94627.28;;;10.01;63.09
19783;BME280;10051;40.294;-3.754;2022-11-20T01:06:31;94606.84;;;9.93;63.72
19783;BME280;10051;40.294;-3.754;2022-11-20T01:08:59;94624.16;;;10.09;63.18
19783;BME280;10051;40.294;-3.754;2022-11-20T01:11:34;94609.44;;;10.03;63.42
19783;BME280;10051;40.294;-3.754;2022-11-20T01:14:01;94572.66;;;9.72;63.50
19783;BME280;10051;40.294;-3.754;2022-11-20T01:16:33;94627.81;;;10.08;63.39
19783;BME280;10051;40.294;-3.754;2022-11-20T01:19:00;94623.09;;;10.10;63.41
19783;BME280;10051;40.294;-3.754;2022-11-20T01:21:34;94619.16;;;10.03;64.07
19783;BME280;10051;40.294;-3.754;2022-11-20T01:24:00;94573.72;;;9.81;63.26
19783;BME280;10051;40.294;-3.754;2022-11-20T01:26:31;94624.16;;;10.09;63.85
19783;BME280;10051;40.294;-3.754;2022-11-20T01:28:58;94615.75;;;10.02;64.39
19783;BME280;10051;40.294;-3.754;2022-11-20T01:31:29;94610.50;;;9.92;64.64
19783;BME280;10051;40.294;-3.754;2022-11-20T01:33:57;94593.16;;;9.91;64.82
19783;BME280;10051;40.294;-3.754;2022-11-20T01:36:25;94611.28;;;9.92;64.95
19783;BME280;10051;40.294;-3.754;2022-11-20T01:38:56;94597.09;;;9.93;64.39
19783;BME280;10051;40.294;-3.754;2022-11-20T01:41:22;94622.03;;;10.01;64.59
19783;BME280;10051;40.294;-3.754;2022-11-20T01:44:09;94621.00;;;10.07;64.26
19783;BME280;10051;40.294;-3.754;2022-11-20T01:46:38;94567.66;;;9.76;63.89
19783;BME280;10051;40.294;-3.754;2022-11-20T01:52:05;94638.09;;;10.05;63.71
19783;BME280;10051;40.294;-3.754;2022-11-20T01:54:39;94631.00;;;9.85;64.50
19783;BME280;10051;40.294;-3.754;2022-11-20T01:57:09;94580.53;;;9.57;64.41
19783;BME280;10051;40.294;-3.754;2022-11-20T01:59:43;94566.63;;;9.51;63.56
19783;BME280;10051;40.294;-3.754;2022-11-20T02:02:10;94620.72;;;9.88;63.81
19783;BME280;10051;40.294;-3.754;2022-11-20T02:04:36;94607.34;;;9.79;63.16
19783;BME280;10051;40.294;-3.754;2022-11-20T02:07:03;94559.53;;;9.62;62.15
19783;BME280;10051;40.294;-3.754;2022-11-20T02:09:30;94615.47;;;9.78;62.10
19783;BME280;10051;40.294;-3.754;2022-11-20T02:11:56;94624.69;;;9.80;61.04
19783;BME280;10051;40.294;-3.754;2022-11-20T02:14:22;94590.22;;;9.41;61.54
19783;BME280;10051;40.294;-3.754;2022-11-20T02:16:49;94614.94;;;9.65;60.63
19783;BME280;10051;40.294;-3.754;2022-11-20T02:19:30;94641.22;;;9.81;61.23
19783;BME280;10051;40.294;-3.754;2022-11-20T02:24:28;94624.16;;;9.78;60.53
19783;BME280;10051;40.294;-3.754;2022-11-20T02:26:57;94640.44;;;10.01;60.54
19783;BME280;10051;40.294;-3.754;2022-11-20T02:30:07;94652.53;;;9.92;61.07
19783;BME280;10051;40.294;-3.754;2022-11-20T02:32:39;94655.16;;;9.97;60.79
19783;BME280;10051;40.294;-3.754;2022-11-20T02:37:51;94640.97;;;9.88;61.54
19783;BME280;10051;40.294;-3.754;2022-11-20T02:40:18;94589.38;;;9.19;63.15
19783;BME280;10051;40.294;-3.754;2022-11-20T02:42:44;94648.25;;;9.49;63.17
19783;BME280;10051;40.294;-3.754;2022-11-20T02:45:10;94593.34;;;9.32;62.14
19783;BME280;10051;40.294;-3.754;2022-11-20T02:47:36;94651.97;;;9.69;61.63
19783;BME280;10051;40.294;-3.754;2022-11-20T02:50:02;94617.22;;;9.20;62.81
19783;BME280;10051;40.294;-3.754;2022-11-20T02:52:28;94622.69;;;9.08;63.84
19783;BME280;10051;40.294;-3.754;2022-11-20T02:54:54;94648.16;;;9.18;63.17
19783;BME280;10051;40.294;-3.754;2022-11-20T02:57:19;94603.34;;;8.67;64.42
19783;BME280;10051;40.294;-3.754;2022-11-20T02:59:45;94604.00;;;8.46;65.40
19783;BME280;10051;40.294;-3.754;2022-11-20T03:02:10;94579.78;;;8.24;65.85
19783;BME280;10051;40.294;-3.754;2022-11-20T03:04:36;94630.50;;;8.45;66.55
19783;BME280;10051;40.294;-3.754;2022-11-20T03:07:02;94644.69;;;8.49;66.27
19783;BME280;10051;40.294;-3.754;2022-11-20T03:09:28;94607.09;;;7.95;67.70
19783;BME280;10051;40.294;-3.754;2022-11-20T03:11:53;94607.81;;;7.85;68.48
19783;BME280;10051;40.294;-3.754;2022-11-20T03:14:19;94658.53;;;8.07;69.05
19783;BME280;10051;40.294;-3.754;2022-11-20T03:16:44;94547.88;;;7.24;69.29
19783;BME280;10051;40.294;-3.754;2022-11-20T03:19:11;94594.50;;;7.59;69.74
19783;BME280;10051;40.294;-3.754;2022-11-20T03:21:37;94648.94;;;7.90;70.01
19783;BME280;10051;40.294;-3.754;2022-11-20T03:24:03;94638.44;;;8.17;68.94
19783;BME280;10051;40.294;-3.754;2022-11-20T03:26:28;94587.25;;;8.04;67.88
19783;BME280;10051;40.294;-3.754;2022-11-20T03:28:57;94642.66;;;8.61;67.39
19783;BME280;10051;40.294;-3.754;2022-11-20T03:31:25;94608.81;;;8.17;68.19
19783;BME280;10051;40.294;-3.754;2022-11-20T03:33:51;94596.66;;;8.00;68.39
19783;BME280;10051;40.294;-3.754;2022-11-20T03:36:19;94572.13;;;8.12;67.70
19783;BME280;10051;40.294;-3.754;2022-11-20T03:38:45;94595.69;;;8.12;68.17
19783;BME280;10051;40.294;-3.754;2022-11-20T03:41:13;94553.56;;;7.81;68.08
19783;BME280;10051;40.294;-3.754;2022-11-20T03:43:40;94597.16;;;7.97;68.52
19783;BME280;10051;40.294;-3.754;2022-11-20T03:46:06;94602.97;;;8.04;68.43
19783;BME280;10051;40.294;-3.754;2022-11-20T03:48:32;94611.22;;;7.86;68.56
19783;BME280;10051;40.294;-3.754;2022-11-20T03:51:15;94612.28;;;7.90;68.97
19783;BME280;10051;40.294;-3.754;2022-11-20T03:53:43;94559.38;;;7.55;68.56
19783;BME280;10051;40.294;-3.754;2022-11-20T03:56:10;94559.47;;;7.66;68.38
19783;BME280;10051;40.294;-3.754;2022-11-20T03:58:37;94612.13;;;7.69;69.34
19783;BME280;10051;40.294;-3.754;2022-11-20T04:01:11;94616.44;;;7.86;69.75
19783;BME280;10051;40.294;-3.754;2022-11-20T04:03:38;94587.94;;;7.57;70.36
19783;BME280;10051;40.294;-3.754;2022-11-20T04:06:19;94593.88;;;7.80;70.41
19783;BME280;10051;40.294;-3.754;2022-11-20T04:08:45;94600.81;;;7.96;69.26
19783;BME280;10051;40.294;-3.754;2022-11-20T04:11:19;94598.97;;;7.92;69.95
19783;BME280;10051;40.294;-3.754;2022-11-20T04:13:50;94602.75;;;8.11;69.21
19783;BME280;10051;40.294;-3.754;2022-11-20T04:16:16;94599.16;;;8.23;68.89
19783;BME280;10051;40.294;-3.754;2022-11-20T04:18:42;94581.59;;;7.80;69.96
19783;BME280;10051;40.294;-3.754;2022-11-20T04:21:08;94585.03;;;7.86;70.37
19783;BME280;10051;40.294;-3.754;2022-11-20T04:23:34;94589.25;;;7.92;69.83
19783;BME280;10051;40.294;-3.754;2022-11-20T04:26:02;94617.22;;;8.19;68.81
19783;BME280;10051;40.294;-3.754;2022-11-20T04:28:27;94564.66;;;7.61;70.39
19783;BME280;10051;40.294;-3.754;2022-11-20T04:30:53;94622.19;;;7.83;70.81
19783;BME280;10051;40.294;-3.754;2022-11-20T04:33:18;94626.25;;;7.68;71.46
19783;BME280;10051;40.294;-3.754;2022-11-20T04:35:46;94598.00;;;7.70;70.61
19783;BME280;10051;40.294;-3.754;2022-11-20T04:38:12;94589.97;;;7.50;70.41
19783;BME280;10051;40.294;-3.754;2022-11-20T04:40:38;94650.53;;;7.91;70.68
19783;BME280;10051;40.294;-3.754;2022-11-20T04:43:03;94633.03;;;7.97;69.81
19783;BME280;10051;40.294;-3.754;2022-11-20T04:45:29;94645.88;;;7.98;70.20
19783;BME280;10051;40.294;-3.754;2022-11-20T04:47:54;94654.56;;;8.04;70.39
19783;BME280;10051;40.294;-3.754;2022-11-20T04:50:20;94641.00;;;8.12;70.49
19783;BME280;10051;40.294;-3.754;2022-11-20T04:52:45;94626.09;;;8.18;70.25
19783;BME280;10051;40.294;-3.754;2022-11-20T04:55:11;94561.72;;;7.84;70.59
19783;BME280;10051;40.294;-3.754;2022-11-20T04:57:36;94632.22;;;8.29;70.55
19783;BME280;10051;40.294;-3.754;2022-11-20T05:00:03;94567.25;;;7.88;70.83
19783;BME280;10051;40.294;-3.754;2022-11-20T05:02:30;94632.19;;;8.24;70.91
19783;BME280;10051;40.294;-3.754;2022-11-20T05:04:56;94630.56;;;8.17;71.75
19783;BME280;10051;40.294;-3.754;2022-11-20T05:07:21;94598.16;;;7.91;72.65
19783;BME280;10051;40.294;-3.754;2022-11-20T05:09:47;94594.09;;;8.06;73.09
19783;BME280;10051;40.294;-3.754;2022-11-20T05:12:12;94537.25;;;7.68;72.87
19783;BME280;10051;40.294;-3.754;2022-11-20T05:14:38;94634.00;;;8.23;73.71
19783;BME280;10051;40.294;-3.754;2022-11-20T05:17:04;94568.31;;;7.92;73.65
19783;BME280;10051;40.294;-3.754;2022-11-20T05:19:29;94637.31;;;8.46;73.09
19783;BME280;10051;40.294;-3.754;2022-11-20T05:21:55;94623.63;;;8.39;74.05
19783;BME280;10051;40.294;-3.754;2022-11-20T05:24:20;94624.16;;;8.41;74.45
19783;BME280;10051;40.294;-3.754;2022-11-20T05:26:46;94526.31;;;7.77;74.51
19783;BME280;10051;40.294;-3.754;2022-11-20T05:29:11;94607.38;;;8.37;74.00
19783;BME280;10051;40.294;-3.754;2022-11-20T05:31:39;94638.09;;;8.46;75.10
19783;BME280;10051;40.294;-3.754;2022-11-20T05:34:05;94608.47;;;8.46;74.38
19783;BME280;10051;40.294;-3.754;2022-11-20T05:36:30;94517.44;;;7.83;73.82
19783;BME280;10051;40.294;-3.754;2022-11-20T05:38:56;94637.94;;;8.58;74.24
19783;BME280;10051;40.294;-3.754;2022-11-20T05:41:22;94604.63;;;8.16;74.02
19783;BME280;10051;40.294;-3.754;2022-11-20T05:43:48;94638.16;;;8.19;74.94
19783;BME280;10051;40.294;-3.754;2022-11-20T05:46:17;94617.19;;;8.14;74.75
19783;BME280;10051;40.294;-3.754;2022-11-20T05:48:43;94638.44;;;8.17;75.55
19783;BME280;10051;40.294;-3.754;2022-11-20T05:51:11;94569.19;;;7.65;75.58
19783;BME280;10051;40.294;-3.754;2022-11-20T05:53:37;94633.28;;;7.95;76.44
19783;BME280;10051;40.294;-3.754;2022-11-20T05:56:05;94637.94;;;7.88;77.52
19783;BME280;10051;40.294;-3.754;2022-11-20T05:58:32;94654.88;;;8.08;77.32
19783;BME280;10051;40.294;-3.754;2022-11-20T06:01:07;94654.91;;;8.18;77.03
19783;BME280;10051;40.294;-3.754;2022-11-20T06:03:33;94665.53;;;8.01;77.92
19783;BME280;10051;40.294;-3.754;2022-11-20T06:06:03;94623.47;;;7.80;77.93
19783;BME280;10051;40.294;-3.754;2022-11-20T06:08:29;94646.09;;;7.92;78.86
19783;BME280;10051;40.294;-3.754;2022-11-20T06:10:55;94659.75;;;7.66;79.74
19783;BME280;10051;40.294;-3.754;2022-11-20T06:13:21;94570.00;;;6.89;80.81
19783;BME280;10051;40.294;-3.754;2022-11-20T06:15:51;94639.94;;;7.21;82.23
19783;BME280;10051;40.294;-3.754;2022-11-20T06:18:18;94672.28;;;7.14;83.04
19783;BME280;10051;40.294;-3.754;2022-11-20T06:20:44;94626.97;;;6.87;83.43
19783;BME280;10051;40.294;-3.754;2022-11-20T06:23:09;94659.69;;;7.11;83.70
19783;BME280;10051;40.294;-3.754;2022-11-20T06:25:39;94627.47;;;6.83;84.29
19783;BME280;10051;40.294;-3.754;2022-11-20T06:28:05;94673.38;;;7.19;84.39
19783;BME280;10051;40.294;-3.754;2022-11-20T06:30:31;94641.53;;;6.99;85.05
19783;BME280;10051;40.294;-3.754;2022-11-20T06:32:56;94617.03;;;7.11;84.57
19783;BME280;10051;40.294;-3.754;2022-11-20T06:35:22;94672.72;;;7.56;82.79
19783;BME280;10051;40.294;-3.754;2022-11-20T06:37:47;94634.41;;;7.44;82.54
19783;BME280;10051;40.294;-3.754;2022-11-20T06:40:13;94690.25;;;7.83;81.73
19783;BME280;10051;40.294;-3.754;2022-11-20T06:42:38;94699.03;;;7.99;80.97
19783;BME280;10051;40.294;-3.754;2022-11-20T06:45:04;94664.97;;;7.94;80.47
19783;BME280;10051;40.294;-3.754;2022-11-20T06:47:30;94693.88;;;8.09;80.65
19783;BME280;10051;40.294;-3.754;2022-11-20T06:49:55;94647.81;;;7.81;81.11
19783;BME280;10051;40.294;-3.754;2022-11-20T06:52:21;94684.38;;;8.30;81.29
19783;BME280;10051;40.294;-3.754;2022-11-20T06:54:46;94704.75;;;8.23;81.81
19783;BME280;10051;40.294;-3.754;2022-11-20T06:57:12;94697.47;;;8.30;81.81
19783;BME280;10051;40.294;-3.754;2022-11-20T06:59:37;94696.13;;;8.55;81.54
19783;BME280;10051;40.294;-3.754;2022-11-20T07:02:03;94695.63;;;8.58;81.60
19783;BME280;10051;40.294;-3.754;2022-11-20T07:04:28;94624.66;;;7.95;82.34
19783;BME280;10051;40.294;-3.754;2022-11-20T07:06:54;94708.69;;;8.53;82.67
19783;BME280;10051;40.294;-3.754;2022-11-20T07:09:19;94691.94;;;8.59;82.40
19783;BME280;10051;40.294;-3.754;2022-11-20T07:11:45;94686.69;;;8.54;82.54
19783;BME280;10051;40.294;-3.754;2022-11-20T07:14:10;94661.28;;;8.27;83.91
19783;BME280;10051;40.294;-3.754;2022-11-20T07:16:36;94676.53;;;8.36;84.17
19783;BME280;10051;40.294;-3.754;2022-11-20T07:19:02;94674.97;;;8.34;84.65
19783;BME280;10051;40.294;-3.754;2022-11-20T07:21:27;94624.25;;;8.13;83.89
19783;BME280;10051;40.294;-3.754;2022-11-20T07:23:53;94699.91;;;8.42;84.79
19783;BME280;10051;40.294;-3.754;2022-11-20T07:26:18;94618.16;;;8.02;83.97
19783;BME280;10051;40.294;-3.754;2022-11-20T07:28:45;94692.34;;;8.46;84.53
19783;BME280;10051;40.294;-3.754;2022-11-20T07:31:11;94683.00;;;8.55;83.79
19783;BME280;10051;40.294;-3.754;2022-11-20T07:33:38;94664.78;;;8.38;83.65
19783;BME280;10051;40.294;-3.754;2022-11-20T07:36:04;94700.97;;;8.79;82.83
19783;BME280;10051;40.294;-3.754;2022-11-20T07:38:30;94633.19;;;8.50;82.45
19783;BME280;10051;40.294;-3.754;2022-11-20T07:40:56;94664.75;;;8.76;82.33
19783;BME280;10051;40.294;-3.754;2022-11-20T07:43:23;94703.75;;;9.05;82.23
19783;BME280;10051;40.294;-3.754;2022-11-20T07:45:49;94655.78;;;8.67;82.74
19783;BME280;10051;40.294;-3.754;2022-11-20T07:48:15;94696.28;;;8.86;83.00
19783;BME280;10051;40.294;-3.754;2022-11-20T07:50:40;94675.81;;;8.83;83.16
19783;BME280;10051;40.294;-3.754;2022-11-20T07:53:06;94726.97;;;9.34;82.41
19783;BME280;10051;40.294;-3.754;2022-11-20T07:55:35;94726.03;;;9.07;83.67
19783;BME280;10051;40.294;-3.754;2022-11-20T07:58:00;94701.34;;;8.98;82.75
19783;BME280;10051;40.294;-3.754;2022-11-20T08:00:26;94710.53;;;9.06;82.63
19783;BME280;10051;40.294;-3.754;2022-11-20T08:02:52;94764.75;;;9.33;82.94
19783;BME280;10051;40.294;-3.754;2022-11-20T08:05:18;94771.13;;;9.47;81.91
19783;BME280;10051;40.294;-3.754;2022-11-20T08:07:44;94772.69;;;9.43;81.66
19783;BME280;10051;40.294;-3.754;2022-11-20T08:10:12;94736.84;;;9.16;81.90
19783;BME280;10051;40.294;-3.754;2022-11-20T08:12:47;94751.09;;;9.31;81.04
19783;BME280;10051;40.294;-3.754;2022-11-20T08:15:32;94780.88;;;9.57;80.02
19783;BME280;10051;40.294;-3.754;2022-11-20T08:18:06;94789.31;;;9.75;79.15
19783;BME280;10051;40.294;-3.754;2022-11-20T08:20:34;94770.22;;;9.31;79.49
19783;BME280;10051;40.294;-3.754;2022-11-20T08:23:01;94733.59;;;8.93;80.85
19783;BME280;10051;40.294;-3.754;2022-11-20T08:25:28;94817.31;;;9.43;82.17
19783;BME280;10051;40.294;-3.754;2022-11-20T08:27:58;94804.19;;;9.43;81.85
19783;BME280;10051;40.294;-3.754;2022-11-20T08:30:23;94835.22;;;9.62;81.27
19783;BME280;10051;40.294;-3.754;2022-11-20T08:32:49;94838.94;;;9.71;82.00
19783;BME280;10051;40.294;-3.754;2022-11-20T08:35:15;94789.19;;;9.44;82.37
19783;BME280;10051;40.294;-3.754;2022-11-20T08:37:40;94837.19;;;9.87;82.01
19783;BME280;10051;40.294;-3.754;2022-11-20T08:40:09;94729.75;;;9.12;81.84
19783;BME280;10051;40.294;-3.754;2022-11-20T08:42:35;94767.41;;;9.38;82.34
19783;BME280;10051;40.294;-3.754;2022-11-20T08:45:01;94824.34;;;9.91;81.44
19783;BME280;10051;40.294;-3.754;2022-11-20T08:47:26;94810.16;;;9.92;81.29
19783;BME280;10051;40.294;-3.754;2022-11-20T08:49:52;94830.13;;;9.98;81.20
19783;BME280;10051;40.294;-3.754;2022-11-20T08:52:17;94795.09;;;9.77;82.18
19783;BME280;10051;40.294;-3.754;2022-11-20T08:54:43;94823.56;;;10.01;82.54
19783;BME280;10051;40.294;-3.754;2022-11-20T08:57:08;94743.09;;;9.63;82.43
19783;BME280;10051;40.294;-3.754;2022-11-20T08:59:34;94823.88;;;10.20;82.08
19783;BME280;10051;40.294;-3.754;2022-11-20T09:01:59;94773.13;;;10.04;81.36
19783;BME280;10051;40.294;-3.754;2022-11-20T09:04:25;94765.53;;;10.18;80.49
19783;BME280;10051;40.294;-3.754;2022-11-20T09:06:50;94813.72;;;10.49;81.34
19783;BME280;10051;40.294;-3.754;2022-11-20T09:09:17;94796.88;;;10.45;80.31
19783;BME280;10051;40.294;-3.754;2022-11-20T09:11:43;94827.69;;;10.76;80.34
19783;BME280;10051;40.294;-3.754;2022-11-20T09:14:09;94784.53;;;10.56;79.95
19783;BME280;10051;40.294;-3.754;2022-11-20T09:16:34;94770.59;;;10.55;80.06
19783;BME280;10051;40.294;-3.754;2022-11-20T09:19:00;94806.59;;;11.01;79.00
19783;BME280;10051;40.294;-3.754;2022-11-20T09:21:25;94819.75;;;11.22;78.35
19783;BME280;10051;40.294;-3.754;2022-11-20T09:23:51;94845.53;;;11.30;78.93
19783;BME280;10051;40.294;-3.754;2022-11-20T09:26:16;94818.19;;;11.16;79.02
19783;BME280;10051;40.294;-3.754;2022-11-20T09:28:42;94805.28;;;11.09;78.05
19783;BME280;10051;40.294;-3.754;2022-11-20T09:31:21;94849.47;;;11.33;77.52
19783;BME280;10051;40.294;-3.754;2022-11-20T09:33:47;94853.41;;;11.41;78.28
19783;BME280;10051;40.294;-3.754;2022-11-20T09:36:12;94818.63;;;11.49;77.08
19783;BME280;10051;40.294;-3.754;2022-11-20T09:38:38;94793.13;;;11.44;76.87
19783;BME280;10051;40.294;-3.754;2022-11-20T09:41:05;94848.50;;;12.10;75.48
19783;BME280;10051;40.294;-3.754;2022-11-20T09:46:37;94853.34;;;12.38;74.10
19783;BME280;10051;40.294;-3.754;2022-11-20T09:57:01;94835.50;;;12.64;71.36
19783;BME280;10051;40.294;-3.754;2022-11-20T09:59:40;94859.72;;;12.76;72.78
19783;BME280;10051;40.294;-3.754;2022-11-20T10:02:25;94863.66;;;12.79;72.37
19783;BME280;10051;40.294;-3.754;2022-11-20T10:04:59;94855.50;;;12.75;72.72
19783;BME280;10051;40.294;-3.754;2022-11-20T10:07:38;94871.16;;;13.01;72.92
19783;BME280;10051;40.294;-3.754;2022-11-20T10:10:16;94858.13;;;13.10;72.55
19783;BME280;10051;40.294;-3.754;2022-11-20T10:26:17;94875.97;;;14.07;68.18
19783;BME280;10051;40.294;-3.754;2022-11-20T10:31:36;94883.09;;;14.31;67.91
19783;BME280;10051;40.294;-3.754;2022-11-20T10:34:25;94869.69;;;14.22;67.89
19783;BME280;10051;40.294;-3.754;2022-11-20T10:37:00;94882.94;;;14.41;67.71
19783;BME280;10051;40.294;-3.754;2022-11-20T10:39:33;94884.97;;;14.49;67.72
19783;BME280;10051;40.294;-3.754;2022-11-20T10:42:00;94879.09;;;14.52;67.94
19783;BME280;10051;40.294;-3.754;2022-11-20T10:44:28;94881.88;;;14.61;68.04
19783;BME280;10051;40.294;-3.754;2022-11-20T10:47:15;94868.53;;;14.71;67.75
19783;BME280;10051;40.294;-3.754;2022-11-20T10:49:42;94855.53;;;14.75;67.71
19783;BME280;10051;40.294;-3.754;2022-11-20T10:55:22;94828.06;;;14.71;67.57
19783;BME280;10051;40.294;-3.754;2022-11-20T11:01:05;94878.72;;;15.16;66.50
19783;BME280;10051;40.294;-3.754;2022-11-20T11:03:31;94850.81;;;15.05;66.34
19783;BME280;10051;40.294;-3.754;2022-11-20T11:08:38;94871.59;;;15.31;65.98
19783;BME280;10051;40.294;-3.754;2022-11-20T11:11:26;94887.16;;;15.52;65.66
19783;BME280;10051;40.294;-3.754;2022-11-20T11:13:53;94861.41;;;15.38;65.45
19783;BME280;10051;40.294;-3.754;2022-11-20T11:16:26;94875.78;;;15.65;64.90
19783;BME280;10051;40.294;-3.754;2022-11-20T11:19:05;94875.41;;;15.72;63.91
19783;BME280;10051;40.294;-3.754;2022-11-20T11:21:31;94785.63;;;15.23;63.42
19783;BME280;10051;40.294;-3.754;2022-11-20T11:24:02;94832.00;;;15.68;63.58
19783;BME280;10051;40.294;-3.754;2022-11-20T11:26:29;94858.50;;;15.82;62.07
19783;BME280;10051;40.294;-3.754;2022-11-20T11:29:02;94868.16;;;15.91;62.07
19783;BME280;10051;40.294;-3.754;2022-11-20T11:31:33;94855.59;;;15.97;62.21
19783;BME280;10051;40.294;-3.754;2022-11-20T11:34:13;94853.84;;;16.07;62.29
19783;BME280;10051;40.294;-3.754;2022-11-20T11:36:39;94842.00;;;16.13;62.09
19783;BME280;10051;40.294;-3.754;2022-11-20T11:39:11;94817.69;;;16.11;61.17
19783;BME280;10051;40.294;-3.754;2022-11-20T11:41:40;94820.09;;;16.21;61.00
19783;BME280;10051;40.294;-3.754;2022-11-20T11:50:13;94836.22;;;16.61;60.75
19783;BME280;10051;40.294;-3.754;2022-11-20T11:56:03;94836.34;;;16.79;59.94
19783;BME280;10051;40.294;-3.754;2022-11-20T11:58:50;94818.19;;;16.72;59.33
19783;BME280;10051;40.294;-3.754;2022-11-20T12:04:26;94829.13;;;16.93;59.08
19783;BME280;10051;40.294;-3.754;2022-11-20T12:07:10;94786.50;;;16.76;59.16
19783;BME280;10051;40.294;-3.754;2022-11-20T12:09:43;94816.84;;;16.98;58.78
19783;BME280;10051;40.294;-3.754;2022-11-20T12:12:13;94792.66;;;16.85;58.79
19783;BME280;10051;40.294;-3.754;2022-11-20T12:14:46;94819.66;;;17.01;58.94
19783;BME280;10051;40.294;-3.754;2022-11-20T12:17:14;94807.16;;;17.02;58.83
19783;BME280;10051;40.294;-3.754;2022-11-20T12:19:40;94788.31;;;16.89;59.07
19783;BME280;10051;40.294;-3.754;2022-11-20T12:24:52;94798.34;;;16.92;59.49
19783;BME280;10051;40.294;-3.754;2022-11-20T12:30:22;94762.13;;;16.74;60.42
19783;BME280;10051;40.294;-3.754;2022-11-20T12:40:59;94791.56;;;17.09;60.26
19783;BME280;10051;40.294;-3.754;2022-11-20T12:43:31;94790.47;;;17.10;59.55
19783;BME280;10051;40.294;-3.754;2022-11-20T12:58:25;94794.56;;;17.39;59.21
19783;BME280;10051;40.294;-3.754;2022-11-20T13:01:01;94789.22;;;17.39;59.41
19783;BME280;10051;40.294;-3.754;2022-11-20T13:03:41;94795.81;;;17.50;59.18
19783;BME280;10051;40.294;-3.754;2022-11-20T13:06:18;94790.25;;;17.61;58.81
19783;BME280;10051;40.294;-3.754;2022-11-20T13:08:50;94775.69;;;17.58;58.66
19783;BME280;10051;40.294;-3.754;2022-11-20T13:19:27;94769.16;;;17.73;58.01
19783;BME280;10051;40.294;-3.754;2022-11-20T13:21:53;94780.63;;;17.91;57.82
19783;BME280;10051;40.294;-3.754;2022-11-20T13:26:45;94802.28;;;18.07;57.22
19783;BME280;10051;40.294;-3.754;2022-11-20T13:29:18;94783.81;;;18.11;57.19
19783;BME280;10051;40.294;-3.754;2022-11-20T13:31:46;94784.75;;;18.06;57.18
19783;BME280;10051;40.294;-3.754;2022-11-20T13:34:22;94788.16;;;17.98;57.22
19783;BME280;10051;40.294;-3.754;2022-11-20T13:36:50;94776.41;;;17.81;57.57
19783;BME280;10051;40.294;-3.754;2022-11-20T13:39:28;94746.25;;;17.54;58.00
19783;BME280;10051;40.294;-3.754;2022-11-20T13:42:25;94771.97;;;17.68;57.68
19783;BME280;10051;40.294;-3.754;2022-11-20T13:45:02;94784.66;;;17.71;58.13
19783;BME280;10051;40.294;-3.754;2022-11-20T13:47:35;94786.56;;;17.79;58.05
19783;BME280;10051;40.294;-3.754;2022-11-20T13:50:04;94787.50;;;17.83;57.66
19783;BME280;10051;40.294;-3.754;2022-11-20T13:55:40;94785.94;;;17.82;58.23
19783;BME280;10051;40.294;-3.754;2022-11-20T14:01:22;94774.72;;;18.03;57.56
19783;BME280;10051;40.294;-3.754;2022-11-20T14:03:49;94755.28;;;17.94;57.11
19783;BME280;10051;40.294;-3.754;2022-11-20T14:06:42;94767.97;;;17.97;57.10
19783;BME280;10051;40.294;-3.754;2022-11-20T14:09:24;94744.97;;;17.92;57.00
19783;BME280;10051;40.294;-3.754;2022-11-20T14:11:50;94745.44;;;17.86;57.27
19783;BME280;10051;40.294;-3.754;2022-11-20T14:14:18;94724.16;;;17.86;57.99
19783;BME280;10051;40.294;-3.754;2022-11-20T14:16:44;94716.00;;;17.82;57.50
19783;BME280;10051;40.294;-3.754;2022-11-20T14:21:50;94705.88;;;18.02;57.24
19783;BME280;10051;40.294;-3.754;2022-11-20T14:24:24;94725.59;;;18.18;56.90
19783;BME280;10051;40.294;-3.754;2022-11-20T14:26:50;94685.69;;;18.01;56.29
19783;BME280;10051;40.294;-3.754;2022-11-20T14:29:28;94685.16;;;17.90;55.96
19783;BME280;10051;40.294;-3.754;2022-11-20T14:31:55;94729.81;;;18.10;56.39
19783;BME280;10051;40.294;-3.754;2022-11-20T14:34:24;94676.41;;;17.80;56.28
19783;BME280;10051;40.294;-3.754;2022-11-20T14:37:00;94725.75;;;18.04;56.27
19783;BME280;10051;40.294;-3.754;2022-11-20T14:39:31;94695.94;;;17.76;55.75
19783;BME280;10051;40.294;-3.754;2022-11-20T14:41:58;94731.03;;;17.95;55.84
19783;BME280;10051;40.294;-3.754;2022-11-20T14:44:27;94698.78;;;17.79;55.36